Time;durP1;ratioP1;P1;durP2;ratioP2;P2;SDS_P1;SDS_P2;PMS_P1;PMS_P2;Temp;Humidity;BMP_temperature;BMP_pressure;BME280_temperature;BME280_humidity;BME280_pressure;Samples;Min_cycle;Max_cycle;Signal;HPM_P1;HPM_P2
2022/10/08 00:01:01;;;;;;;0.50;0.50;;;11.80;99.90;;;;;;5042408;28;20196;-82
2022/10/08 00:03:29;;;;;;;0.50;0.50;;;11.70;99.90;;;;;;5043523;28;20175;-82
2022/10/08 00:06:04;;;;;;;0.43;0.43;;;11.70;99.90;;;;;;5051326;28;20176;-81
2022/10/08 00:08:32;;;;;;;0.50;0.50;;;11.60;99.90;;;;;;5051456;28;20206;-80
2022/10/08 00:11:00;;;;;;;0.60;0.60;;;11.50;99.90;;;;;;5042329;28;20291;-83
2022/10/08 00:13:28;;;;;;;0.50;0.50;;;11.50;99.90;;;;;;5038696;28;20183;-82
2022/10/08 00:15:55;;;;;;;0.50;0.50;;;11.40;99.90;;;;;;5039527;28;20582;-83
2022/10/08 00:18:21;;;;;;;0.43;0.43;;;11.80;99.90;;;;;;5039940;28;20176;-83
2022/10/08 00:20:47;;;;;;;0.50;0.50;;;11.30;99.90;;;;;;5038219;28;20198;-81
2022/10/08 00:23:13;;;;;;;0.47;0.47;;;11.30;99.90;;;;;;5045943;28;20187;-81
2022/10/08 00:25:41;;;;;;;0.40;0.40;;;11.30;99.90;;;;;;5058042;28;20243;-82
2022/10/08 00:28:10;;;;;;;0.47;0.47;;;11.20;99.90;;;;;;5058340;28;20243;-81
2022/10/08 00:30:38;;;;;;;0.57;0.57;;;11.10;99.90;;;;;;5057947;28;20203;-81
2022/10/08 00:33:05;;;;;;;0.50;0.50;;;11.10;99.90;;;;;;5057801;28;20172;-80
2022/10/08 00:35:36;;;;;;;0.60;0.60;;;11.20;99.90;;;;;;5058305;28;20235;-81
2022/10/08 00:38:01;;;;;;;0.70;0.70;;;11.20;99.90;;;;;;5057685;28;20168;-82
2022/10/08 00:40:27;;;;;;;0.50;0.50;;;11.10;99.90;;;;;;5057169;28;20254;-80
2022/10/08 00:42:53;;;;;;;0.47;0.47;;;11.10;99.90;;;;;;5057035;28;20180;-80
2022/10/08 00:45:18;;;;;;;0.50;0.50;;;11.00;99.90;;;;;;5057297;28;20179;-80
2022/10/08 00:47:47;;;;;;;0.50;0.50;;;11.00;99.90;;;;;;5057564;28;20191;-79
2022/10/08 00:50:15;;;;;;;0.50;0.50;;;10.90;99.90;;;;;;5056790;28;20192;-81
2022/10/08 00:53:08;;;;;;;0.50;0.50;;;10.70;99.90;;;;;;5058189;28;20172;-79
2022/10/08 00:55:37;;;;;;;0.63;0.63;;;10.60;99.90;;;;;;5056609;28;20230;-79
2022/10/08 00:58:13;;;;;;;0.50;0.50;;;10.60;99.90;;;;;;5058068;28;20199;-80
2022/10/08 01:00:38;;;;;;;0.50;0.50;;;10.50;99.90;;;;;;5057541;28;20202;-80
2022/10/08 01:03:05;;;;;;;0.60;0.60;;;10.50;99.90;;;;;;5057871;28;20175;-80
2022/10/08 01:05:56;;;;;;;0.60;0.60;;;10.40;99.90;;;;;;5056612;28;20168;-80
2022/10/08 01:08:30;;;;;;;0.50;0.50;;;10.60;99.90;;;;;;5056301;28;20236;-80
2022/10/08 01:11:22;;;;;;;0.60;0.60;;;10.60;99.90;;;;;;5056061;28;20209;-80
2022/10/08 01:14:02;;;;;;;0.63;0.63;;;10.70;99.90;;;;;;5056835;28;20190;-79
2022/10/08 01:16:53;;;;;;;0.40;0.40;;;10.90;99.90;;;;;;5049939;28;20266;-80
2022/10/08 01:19:31;;;;;;;0.50;0.50;;;11.00;99.90;;;;;;5047873;28;20179;-82
2022/10/08 01:22:35;;;;;;;0.50;0.50;;;11.00;99.90;;;;;;5049884;28;20529;-81
2022/10/08 01:28:00;;;;;;;0.50;0.50;;;11.00;99.90;;;;;;5057018;28;20214;-80
2022/10/08 01:30:27;;;;;;;0.50;0.50;;;11.10;99.90;;;;;;5056977;28;20264;-80
2022/10/08 01:33:01;;;;;;;0.50;0.50;;;11.10;99.90;;;;;;5052948;28;20191;-78
2022/10/08 01:35:30;;;;;;;0.40;0.40;;;11.00;99.90;;;;;;5047778;28;20242;-81
2022/10/08 01:38:01;;;;;;;0.50;0.50;;;11.00;99.90;;;;;;5036600;28;20172;-80
2022/10/08 01:40:34;;;;;;;0.50;0.50;;;11.00;99.90;;;;;;5035559;28;20192;-81
2022/10/08 01:43:00;;;;;;;0.50;0.50;;;11.00;99.90;;;;;;5038752;28;20735;-83
2022/10/08 01:45:32;;;;;;;0.50;0.50;;;11.00;99.90;;;;;;5039765;28;20206;-83
2022/10/08 01:48:04;;;;;;;0.50;0.50;;;11.10;99.90;;;;;;5040129;28;20183;-84
2022/10/08 01:50:36;;;;;;;0.50;0.50;;;11.10;99.90;;;;;;5039269;28;20207;-83
2022/10/08 01:53:08;;;;;;;0.43;0.43;;;11.20;99.90;;;;;;5039755;28;20191;-82
2022/10/08 01:55:38;;;;;;;0.50;0.50;;;11.10;99.90;;;;;;5039438;28;20249;-83
2022/10/08 01:58:08;;;;;;;0.50;0.50;;;11.20;99.90;;;;;;5039400;28;20172;-84
2022/10/08 02:00:36;;;;;;;0.50;0.50;;;11.20;99.90;;;;;;5042122;28;20196;-81
2022/10/08 02:03:02;;;;;;;0.50;0.50;;;11.20;99.90;;;;;;5041458;28;20296;-84
2022/10/08 02:05:31;;;;;;;0.40;0.40;;;11.20;99.90;;;;;;5044452;28;20271;-83
2022/10/08 02:07:57;;;;;;;0.53;0.53;;;11.20;99.90;;;;;;5042486;28;20176;-83
2022/10/08 02:10:25;;;;;;;0.47;0.47;;;11.20;99.90;;;;;;5042003;28;20210;-84
2022/10/08 02:12:51;;;;;;;0.40;0.40;;;11.30;99.90;;;;;;5040849;28;20629;-82
2022/10/08 02:15:26;;;;;;;0.50;0.50;;;11.30;99.90;;;;;;5041489;28;20298;-83
2022/10/08 02:18:10;;;;;;;0.50;0.50;;;11.30;99.90;;;;;;5040978;28;20179;-83
2022/10/08 02:20:46;;;;;;;0.50;0.50;;;11.40;99.90;;;;;;5040436;28;20684;-83
2022/10/08 02:23:47;;;;;;;0.40;0.40;;;11.40;99.90;;;;;;5040507;28;20235;-82
2022/10/08 02:26:19;;;;;;;0.40;0.40;;;11.30;99.90;;;;;;5040500;28;20594;-81
2022/10/08 02:28:49;;;;;;;0.50;0.50;;;11.20;99.90;;;;;;5039101;28;20168;-83
2022/10/08 02:31:34;;;;;;;0.60;0.60;;;11.20;99.90;;;;;;5037782;28;20664;-83
2022/10/08 02:34:13;;;;;;;0.40;0.40;;;11.10;99.90;;;;;;5038916;28;20688;-83
2022/10/08 02:36:43;;;;;;;0.57;0.57;;;11.10;99.90;;;;;;5037349;28;20191;-82
2022/10/08 02:39:11;;;;;;;0.50;0.50;;;11.20;99.90;;;;;;5037795;28;20172;-82
2022/10/08 02:41:43;;;;;;;0.40;0.40;;;11.20;99.90;;;;;;5039467;28;20192;-82
2022/10/08 02:44:16;;;;;;;0.40;0.40;;;11.30;99.90;;;;;;5042862;28;20211;-82
2022/10/08 02:46:45;;;;;;;0.30;0.30;;;11.20;99.90;;;;;;5042200;28;20182;-83
2022/10/08 02:49:17;;;;;;;0.60;0.60;;;11.30;99.90;;;;;;5042406;28;20183;-81
2022/10/08 02:51:48;;;;;;;0.50;0.50;;;11.20;99.90;;;;;;5041359;28;20215;-82
2022/10/08 02:54:17;;;;;;;0.50;0.50;;;11.20;99.90;;;;;;5040923;28;20207;-83
2022/10/08 02:56:51;;;;;;;0.43;0.43;;;11.30;99.90;;;;;;5042271;28;20172;-82
2022/10/08 02:59:19;;;;;;;0.57;0.57;;;11.40;99.90;;;;;;5041249;28;20172;-82
2022/10/08 03:01:49;;;;;;;0.40;0.40;;;11.40;99.90;;;;;;5041008;28;20199;-82
2022/10/08 03:04:23;;;;;;;0.50;0.50;;;11.40;99.90;;;;;;5043198;28;20175;-82
2022/10/08 03:06:51;;;;;;;0.47;0.47;;;11.30;99.90;;;;;;5042536;28;20172;-81
2022/10/08 03:09:19;;;;;;;0.50;0.50;;;11.30;99.90;;;;;;5041520;28;20180;-82
2022/10/08 03:11:45;;;;;;;0.63;0.63;;;11.20;99.90;;;;;;5041526;28;20315;-81
2022/10/08 03:14:13;;;;;;;0.50;0.50;;;11.30;99.90;;;;;;5041205;28;20203;-81
2022/10/08 03:16:41;;;;;;;0.50;0.50;;;11.40;99.90;;;;;;5041209;28;20242;-81
2022/10/08 03:19:09;;;;;;;0.50;0.50;;;11.40;99.90;;;;;;5043850;28;20171;-82
2022/10/08 03:21:38;;;;;;;0.30;0.30;;;11.40;99.90;;;;;;5042839;28;20579;-82
2022/10/08 03:24:08;;;;;;;0.40;0.40;;;11.30;99.90;;;;;;5043812;28;20176;-81
2022/10/08 03:26:33;;;;;;;0.50;0.50;;;11.30;99.90;;;;;;5043560;28;20245;-82
2022/10/08 03:28:59;;;;;;;0.57;0.57;;;11.30;99.90;;;;;;5043722;28;20652;-83
2022/10/08 03:31:25;;;;;;;0.40;0.40;;;11.30;99.90;;;;;;5050425;28;20263;-79
2022/10/08 03:33:52;;;;;;;0.40;0.40;;;11.30;99.90;;;;;;5057808;28;20180;-79
2022/10/08 03:36:18;;;;;;;0.60;0.60;;;11.30;99.90;;;;;;5058572;28;20175;-79
2022/10/08 03:38:44;;;;;;;0.57;0.57;;;11.30;99.90;;;;;;5058518;28;20203;-79
2022/10/08 03:41:10;;;;;;;0.60;0.60;;;11.20;99.90;;;;;;5053962;28;20191;-81
2022/10/08 03:43:35;;;;;;;0.50;0.50;;;11.20;99.90;;;;;;5054314;28;20286;-79
2022/10/08 03:46:01;;;;;;;0.60;0.60;;;11.20;99.90;;;;;;5057291;28;20180;-79
2022/10/08 03:48:27;;;;;;;0.50;0.50;;;11.20;99.90;;;;;;5056916;28;20203;-79
2022/10/08 03:50:55;;;;;;;0.50;0.50;;;11.10;99.90;;;;;;5056963;28;20210;-79
2022/10/08 03:53:21;;;;;;;0.60;0.60;;;11.00;99.90;;;;;;5058218;28;20176;-79
2022/10/08 03:55:47;;;;;;;0.50;0.50;;;11.00;99.90;;;;;;5056875;28;20220;-79
2022/10/08 03:58:13;;;;;;;0.43;0.43;;;11.00;99.90;;;;;;5052958;28;20247;-81
2022/10/08 04:00:39;;;;;;;0.60;0.60;;;11.00;99.90;;;;;;5041580;28;20302;-81
2022/10/08 04:03:04;;;;;;;0.43;0.43;;;11.00;99.90;;;;;;5042129;28;20254;-83
2022/10/08 04:05:30;;;;;;;0.60;0.60;;;11.00;99.90;;;;;;5061996;28;20601;-82
2022/10/08 04:07:56;;;;;;;0.40;0.40;;;11.10;99.90;;;;;;5062402;28;20634;-82
2022/10/08 04:10:21;;;;;;;0.50;0.50;;;11.20;99.90;;;;;;5061314;28;20229;-81
2022/10/08 04:12:47;;;;;;;0.50;0.50;;;11.30;99.90;;;;;;5061278;28;20262;-82
2022/10/08 04:15:12;;;;;;;0.50;0.50;;;11.30;99.90;;;;;;5061506;28;20214;-82
2022/10/08 04:17:40;;;;;;;0.40;0.40;;;11.30;99.90;;;;;;5061502;28;20616;-82
2022/10/08 04:20:06;;;;;;;0.50;0.50;;;11.30;99.90;;;;;;5058137;28;20615;-82
2022/10/08 04:22:32;;;;;;;0.50;0.50;;;11.30;99.90;;;;;;5057925;28;20203;-81
2022/10/08 04:24:57;;;;;;;0.50;0.50;;;11.30;99.90;;;;;;5057042;28;20528;-81
2022/10/08 04:27:23;;;;;;;0.50;0.50;;;11.30;99.90;;;;;;5057323;28;20167;-81
2022/10/08 04:29:48;;;;;;;0.50;0.50;;;11.30;99.90;;;;;;5057859;28;20207;-81
2022/10/08 04:32:14;;;;;;;0.50;0.50;;;11.30;99.90;;;;;;5058104;28;20596;-81
2022/10/08 04:34:40;;;;;;;0.70;0.70;;;11.30;99.90;;;;;;5057250;28;20206;-81
2022/10/08 04:37:06;;;;;;;0.50;0.50;;;11.40;99.90;;;;;;5057809;28;20167;-82
2022/10/08 04:39:31;;;;;;;0.60;0.60;;;11.50;99.90;;;;;;5059613;28;20270;-80
2022/10/08 04:41:57;;;;;;;0.50;0.50;;;11.60;99.90;;;;;;5060295;28;20270;-81
2022/10/08 04:44:22;;;;;;;0.60;0.60;;;11.70;99.90;;;;;;5059704;28;20217;-82
2022/10/08 04:46:48;;;;;;;0.60;0.60;;;11.70;99.90;;;;;;5060396;28;20179;-81
2022/10/08 04:49:13;;;;;;;0.53;0.53;;;11.80;99.90;;;;;;5059638;28;20183;-82
2022/10/08 04:51:39;;;;;;;0.40;0.40;;;11.90;99.90;;;;;;5059616;28;20194;-82
2022/10/08 04:54:04;;;;;;;0.40;0.40;;;11.90;99.90;;;;;;5072582;28;20175;-81
2022/10/08 04:56:33;;;;;;;0.60;0.60;;;11.60;99.90;;;;;;5073183;28;20183;-80
2022/10/08 04:58:59;;;;;;;0.50;0.50;;;11.40;99.90;;;;;;5063916;28;20642;-82
2022/10/08 05:01:26;;;;;;;0.50;0.50;;;11.50;99.90;;;;;;5056204;28;20202;-81
2022/10/08 05:03:53;;;;;;;0.40;0.40;;;11.60;99.90;;;;;;5056955;28;20167;-81
2022/10/08 05:06:21;;;;;;;0.40;0.40;;;11.70;99.90;;;;;;5056936;28;20179;-81
2022/10/08 05:08:48;;;;;;;0.53;0.53;;;11.80;99.90;;;;;;5056466;28;20608;-81
2022/10/08 05:11:14;;;;;;;0.40;0.40;;;12.20;99.90;;;;;;5055890;28;20210;-82
2022/10/08 05:13:40;;;;;;;0.50;0.50;;;11.70;99.90;;;;;;5056519;28;20175;-82
2022/10/08 05:16:12;;;;;;;0.50;0.50;;;11.70;99.90;;;;;;5057554;28;20215;-82
2022/10/08 05:18:39;;;;;;;0.60;0.60;;;11.60;99.90;;;;;;5056375;28;20229;-82
2022/10/08 05:21:10;;;;;;;0.60;0.60;;;11.70;99.90;;;;;;5055852;28;20199;-80
2022/10/08 05:23:36;;;;;;;0.50;0.50;;;11.70;99.90;;;;;;5056295;28;20179;-82
2022/10/08 05:26:20;;;;;;;0.60;0.60;;;11.70;99.90;;;;;;5055739;28;20203;-81
2022/10/08 05:28:46;;;;;;;0.50;0.50;;;11.60;99.90;;;;;;5056216;28;20181;-81
2022/10/08 05:31:15;;;;;;;0.50;0.50;;;11.60;99.90;;;;;;5056041;28;20199;-82
2022/10/08 05:33:41;;;;;;;0.47;0.47;;;11.60;99.90;;;;;;5056091;28;20602;-84
2022/10/08 05:36:14;;;;;;;0.60;0.60;;;11.70;99.90;;;;;;5056048;28;20219;-82
2022/10/08 05:38:42;;;;;;;0.60;0.60;;;11.60;99.90;;;;;;5056795;28;20175;-84
2022/10/08 05:41:20;;;;;;;0.50;0.50;;;11.50;99.90;;;;;;5055731;28;20199;-84
2022/10/08 05:43:47;;;;;;;0.60;0.60;;;11.60;99.90;;;;;;5056255;28;20546;-82
2022/10/08 05:46:13;;;;;;;0.50;0.50;;;11.60;99.90;;;;;;5056890;28;20175;-81
2022/10/08 05:48:39;;;;;;;0.50;0.50;;;11.60;99.90;;;;;;5056114;28;20195;-81
2022/10/08 05:51:13;;;;;;;0.50;0.50;;;11.60;99.90;;;;;;5055219;28;20195;-80
2022/10/08 05:53:42;;;;;;;0.50;0.50;;;11.60;99.90;;;;;;5056248;28;20243;-80
2022/10/08 05:56:09;;;;;;;0.50;0.50;;;11.70;99.90;;;;;;5054843;28;20218;-83
2022/10/08 05:58:36;;;;;;;0.50;0.50;;;11.70;99.90;;;;;;5055180;28;20198;-80
2022/10/08 06:01:05;;;;;;;0.57;0.57;;;11.70;99.90;;;;;;5054593;28;20591;-83
2022/10/08 06:03:31;;;;;;;0.63;0.63;;;11.70;99.90;;;;;;5054565;28;20201;-82
2022/10/08 06:06:02;;;;;;;0.50;0.50;;;11.70;99.90;;;;;;5055184;28;20182;-82
2022/10/08 06:08:27;;;;;;;0.40;0.40;;;11.70;99.90;;;;;;5057171;28;20175;-82
2022/10/08 06:10:54;;;;;;;0.50;0.50;;;11.70;99.90;;;;;;5059463;28;20195;-82
2022/10/08 06:13:21;;;;;;;0.43;0.43;;;11.70;99.90;;;;;;5061932;28;20183;-82
2022/10/08 06:16:03;;;;;;;0.60;0.60;;;11.70;99.90;;;;;;5061737;28;20207;-81
2022/10/08 06:18:31;;;;;;;0.40;0.40;;;11.80;99.90;;;;;;5060794;28;20178;-85
2022/10/08 06:21:04;;;;;;;0.53;0.53;;;11.90;99.90;;;;;;5055372;28;20199;-82
2022/10/08 06:23:30;;;;;;;0.40;0.40;;;12.10;99.90;;;;;;5057996;28;20183;-84
2022/10/08 06:25:59;;;;;;;0.40;0.40;;;12.00;99.90;;;;;;5059008;28;20202;-85
2022/10/08 06:28:25;;;;;;;0.40;0.40;;;11.90;99.90;;;;;;5058742;28;20179;-85
2022/10/08 06:30:50;;;;;;;0.40;0.40;;;12.00;99.90;;;;;;5056688;28;20567;-84
2022/10/08 06:33:16;;;;;;;0.50;0.50;;;12.00;99.90;;;;;;5055496;28;20652;-84
2022/10/08 06:35:41;;;;;;;0.40;0.40;;;12.00;99.90;;;;;;5056559;28;20222;-84
2022/10/08 06:38:07;;;;;;;0.50;0.50;;;12.10;99.90;;;;;;5057803;28;20179;-85
2022/10/08 06:40:39;;;;;;;0.40;0.40;;;12.20;99.90;;;;;;5055817;28;20282;-83
2022/10/08 06:43:18;;;;;;;0.50;0.50;;;12.20;99.90;;;;;;5055956;28;20198;-86
2022/10/08 06:45:45;;;;;;;0.50;0.50;;;12.40;99.90;;;;;;5057040;28;20217;-85
2022/10/08 06:48:12;;;;;;;0.50;0.50;;;12.60;99.90;;;;;;5055435;28;20262;-85
2022/10/08 06:50:38;;;;;;;0.50;0.50;;;12.80;99.90;;;;;;5060000;28;20640;-85
2022/10/08 06:53:05;;;;;;;0.50;0.50;;;13.20;99.90;;;;;;5060045;28;20182;-85
2022/10/08 06:55:32;;;;;;;0.50;0.50;;;13.70;99.90;;;;;;5058886;28;20246;-85
2022/10/08 06:57:58;;;;;;;0.40;0.40;;;14.30;99.90;;;;;;5062588;28;20172;-84
2022/10/08 07:00:24;;;;;;;0.40;0.40;;;14.90;99.90;;;;;;5058797;28;20775;-84
2022/10/08 07:02:50;;;;;;;0.40;0.40;;;15.00;99.90;;;;;;5058637;28;20175;-86
2022/10/08 07:05:16;;;;;;;0.40;0.40;;;15.80;22.40;;;;;;5057205;28;20258;-87
2022/10/08 07:07:42;;;;;;;0.30;0.30;;;16.30;1.00;;;;;;5058188;28;20542;-87
2022/10/08 07:10:08;;;;;;;0.30;0.30;;;16.80;1.00;;;;;;5056714;28;20233;-87
2022/10/08 07:12:33;;;;;;;0.30;0.30;;;17.30;1.00;;;;;;5056943;28;20258;-84
2022/10/08 07:14:59;;;;;;;0.30;0.30;;;17.70;99.90;;;;;;5056694;28;20314;-85
2022/10/08 07:17:27;;;;;;;0.30;0.30;;;17.50;99.90;;;;;;5058160;28;20179;-81
2022/10/08 07:19:53;;;;;;;0.40;0.40;;;17.70;99.90;;;;;;5057549;28;20206;-78
2022/10/08 07:22:19;;;;;;;0.40;0.40;;;17.40;99.90;;;;;;5056955;28;20202;-79
2022/10/08 07:24:44;;;;;;;0.50;0.50;;;17.40;1.00;;;;;;5056523;28;20167;-78
2022/10/08 07:27:10;;;;;;;0.43;0.43;;;17.60;99.90;;;;;;5055609;28;20189;-78
2022/10/08 07:29:35;;;;;;;0.40;0.40;;;17.90;1.00;;;;;;5051887;28;20651;-80
2022/10/08 07:32:01;;;;;;;0.40;0.40;;;18.60;1.00;;;;;;5055332;28;20717;-80
2022/10/08 07:34:26;;;;;;;0.40;0.40;;;18.60;99.90;;;;;;5057743;28;20297;-80
2022/10/08 07:36:52;;;;;;;0.50;0.50;;;19.00;1.00;;;;;;5054836;28;20543;-79
2022/10/08 07:39:18;;;;;;;0.40;0.40;;;18.50;99.90;;;;;;5057113;28;20746;-80
2022/10/08 07:41:44;;;;;;;0.30;0.30;;;18.40;1.00;;;;;;5038206;28;20192;-80
2022/10/08 07:44:11;;;;;;;0.40;0.40;;;18.90;1.00;;;;;;5037898;28;20199;-81
2022/10/08 07:46:40;;;;;;;0.27;0.27;;;18.80;99.90;;;;;;5038058;28;20182;-81
2022/10/08 07:49:06;;;;;;;0.53;0.53;;;18.90;1.00;;;;;;5035551;28;20184;-80
2022/10/08 07:51:33;;;;;;;0.40;0.40;;;19.60;99.90;;;;;;5041408;28;20198;-81
2022/10/08 07:53:59;;;;;;;0.30;0.30;;;19.60;1.00;;;;;;5048950;28;20172;-80
2022/10/08 07:56:25;;;;;;;0.50;0.50;;;20.10;1.00;;;;;;5052919;28;20195;-79
2022/10/08 07:58:51;;;;;;;0.30;0.30;;;19.30;79.50;;;;;;5042612;28;20600;-81
2022/10/08 08:01:21;;;;;;;0.40;0.40;;;18.60;1.00;;;;;;5037938;28;20226;-79
2022/10/08 08:03:58;;;;;;;0.40;0.40;;;17.70;99.90;;;;;;5046325;28;20195;-79
2022/10/08 08:06:24;;;;;;;0.30;0.30;;;18.00;1.00;;;;;;5056678;28;20226;-81
2022/10/08 08:08:50;;;;;;;0.30;0.30;;;18.00;1.00;;;;;;5050615;28;20179;-81
2022/10/08 08:11:17;;;;;;;0.40;0.40;;;18.80;1.00;;;;;;5052397;28;20256;-82
2022/10/08 08:13:43;;;;;;;0.50;0.50;;;19.50;99.90;;;;;;5056986;28;20254;-82
2022/10/08 08:16:12;;;;;;;0.40;0.40;;;19.80;99.90;;;;;;5047441;28;20244;-83
2022/10/08 08:18:40;;;;;;;0.40;0.40;;;20.10;99.90;;;;;;5048379;28;20183;-83
2022/10/08 08:21:10;;;;;;;0.40;0.40;;;19.90;99.90;;;;;;5058102;28;20202;-83
2022/10/08 08:23:38;;;;;;;0.40;0.40;;;19.90;19.30;;;;;;5057103;28;20228;-83
2022/10/08 08:26:11;;;;;;;0.40;0.40;;;19.60;99.90;;;;;;5058602;28;20489;-84
2022/10/08 08:28:36;;;;;;;0.40;0.40;;;19.30;99.90;;;;;;5058090;28;20251;-83
2022/10/08 08:31:23;;;;;;;0.40;0.40;;;18.90;1.00;;;;;;5058582;28;20191;-83
2022/10/08 08:33:51;;;;;;;0.30;0.30;;;18.40;99.90;;;;;;5058398;28;20179;-85
2022/10/08 08:36:18;;;;;;;0.30;0.30;;;17.90;99.90;;;;;;5059845;28;20293;-84
2022/10/08 08:38:45;;;;;;;0.30;0.30;;;17.60;99.90;;;;;;5061244;28;20539;-84
2022/10/08 08:41:21;;;;;;;0.37;0.37;;;17.40;67.00;;;;;;5058504;28;20191;-83
2022/10/08 08:43:47;;;;;;;0.33;0.33;;;17.80;1.00;;;;;;5058315;28;20190;-84
2022/10/08 08:46:18;;;;;;;0.50;0.50;;;18.50;1.00;;;;;;5057793;28;20195;-81
2022/10/08 08:48:45;;;;;;;0.30;0.30;;;19.90;89.10;;;;;;5056958;28;20176;-83
2022/10/08 08:51:11;;;;;;;0.40;0.40;;;21.10;1.00;;;;;;5053914;28;20249;-82
2022/10/08 08:53:37;;;;;;;0.40;0.40;;;22.00;1.00;;;;;;5056258;28;20171;-85
2022/10/08 08:56:05;;;;;;;0.47;0.47;;;22.30;1.00;;;;;;5044828;28;20203;-85
2022/10/08 08:58:57;;;;;;;0.50;0.50;;;22.50;1.00;;;;;;5037544;28;20223;-85
2022/10/08 09:01:29;;;;;;;0.50;0.50;;;21.60;1.00;;;;;;5039000;28;20241;-85
2022/10/08 09:04:02;;;;;;;0.50;0.50;;;20.40;1.00;;;;;;5079243;28;20202;-83
2022/10/08 09:06:29;;;;;;;0.40;0.40;;;19.40;99.90;;;;;;5081420;28;20206;-85
2022/10/08 09:09:13;;;;;;;0.30;0.30;;;19.20;99.90;;;;;;5077247;28;20197;-86
2022/10/08 09:11:41;;;;;;;0.50;0.50;;;18.60;99.90;;;;;;5076152;28;20226;-85
2022/10/08 09:14:13;;;;;;;0.50;0.50;;;18.50;99.90;;;;;;5077277;28;20167;-85
2022/10/08 09:16:39;;;;;;;0.50;0.50;;;18.30;99.90;;;;;;5082492;28;20642;-85
2022/10/08 09:19:05;;;;;;;0.50;0.50;;;18.70;67.70;;;;;;5084254;28;20175;-84
2022/10/08 09:21:32;;;;;;;0.30;0.30;;;18.60;99.90;;;;;;5073767;28;20277;-85
2022/10/08 09:23:59;;;;;;;0.30;0.30;;;19.00;38.00;;;;;;5075195;28;20271;-84
2022/10/08 09:26:33;;;;;;;0.30;0.30;;;19.60;1.00;;;;;;5074065;28;20177;-86
2022/10/08 09:29:01;;;;;;;0.40;0.40;;;19.70;1.00;;;;;;5075302;28;20178;-83
2022/10/08 09:31:45;;;;;;;0.40;0.40;;;19.10;1.00;;;;;;5076171;28;20202;-84
2022/10/08 09:34:20;;;;;;;0.30;0.30;;;18.90;1.00;;;;;;5077618;28;20555;-85
2022/10/08 09:36:51;;;;;;;0.50;0.50;;;18.60;1.00;;;;;;5077827;28;20696;-85
2022/10/08 09:39:33;;;;;;;0.40;0.40;;;18.20;1.00;;;;;;5075953;28;20190;-84
2022/10/08 09:42:18;;;;;;;0.40;0.40;;;18.40;99.90;;;;;;5076817;28;20174;-83
2022/10/08 09:44:54;;;;;;;0.40;0.40;;;19.40;1.00;;;;;;5074972;28;20216;-84
2022/10/08 09:47:22;;;;;;;0.40;0.40;;;19.30;1.00;;;;;;5076557;28;20603;-84
2022/10/08 09:50:15;;;;;;;0.30;0.30;;;19.30;1.00;;;;;;5075465;28;20694;-84
2022/10/08 09:52:41;;;;;;;0.50;0.50;;;19.30;1.00;;;;;;5076541;28;20702;-84
2022/10/08 09:55:15;;;;;;;0.30;0.30;;;19.90;1.00;;;;;;5052943;28;20215;-83
2022/10/08 09:57:47;;;;;;;0.40;0.40;;;21.50;1.00;;;;;;5056651;28;20190;-83
2022/10/08 10:00:36;;;;;;;0.40;0.40;;;22.50;1.00;;;;;;5056084;28;20195;-82
2022/10/08 10:03:04;;;;;;;0.40;0.40;;;22.00;1.00;;;;;;5055260;28;20209;-86
2022/10/08 10:05:33;;;;;;;0.30;0.30;;;23.00;1.00;;;;;;5047584;28;20186;-87
2022/10/08 10:07:59;;;;;;;0.43;0.43;;;23.10;1.00;;;;;;5055678;28;20204;-84
2022/10/08 10:10:28;;;;;;;0.50;0.50;;;22.00;1.00;;;;;;5055618;28;20191;-80
2022/10/08 10:13:07;;;;;;;0.40;0.40;;;21.00;1.00;;;;;;5056210;28;20646;-77
2022/10/08 10:15:38;;;;;;;0.40;0.40;;;21.00;1.00;;;;;;5048720;28;20221;-79
2022/10/08 10:18:20;;;;;;;0.30;0.30;;;21.80;1.00;;;;;;5052699;28;20174;-77
2022/10/08 10:20:47;;;;;;;0.50;0.50;;;22.70;1.00;;;;;;5047675;28;20195;-78
2022/10/08 10:23:23;;;;;;;0.60;0.60;;;23.50;1.00;;;;;;5052145;28;20179;-78
2022/10/08 10:25:57;;;;;;;0.50;0.50;;;23.90;1.00;;;;;;5036941;28;20536;-79
2022/10/08 10:28:34;;;;;;;0.60;0.60;;;24.30;1.00;;;;;;5053566;28;20181;-78
2022/10/08 10:31:06;;;;;;;0.50;0.50;;;24.30;1.00;;;;;;5034508;28;20199;-78
2022/10/08 10:33:36;;;;;;;0.50;0.50;;;23.50;1.00;;;;;;5034979;28;20565;-78
2022/10/08 10:36:08;;;;;;;0.70;0.70;;;22.70;1.00;;;;;;5034357;28;20210;-78
2022/10/08 10:38:39;;;;;;;0.60;0.60;;;22.40;1.00;;;;;;5036305;28;20617;-79
2022/10/08 10:41:17;;;;;;;0.60;0.60;;;22.30;1.00;;;;;;5050010;28;20202;-78
2022/10/08 10:44:13;;;;;;;0.50;0.50;;;22.00;1.00;;;;;;5041218;28;20191;-77
2022/10/08 10:46:50;;;;;;;0.40;0.40;;;21.40;1.00;;;;;;5025976;28;20562;-79
2022/10/08 10:49:20;;;;;;;0.50;0.50;;;20.60;1.00;;;;;;5033396;28;20176;-78
2022/10/08 10:51:57;;;;;;;0.53;0.53;;;21.10;1.00;;;;;;5033073;28;20282;-79
2022/10/08 10:54:37;;;;;;;0.30;0.30;;;21.80;1.00;;;;;;5034153;28;20294;-79
2022/10/08 10:57:46;;;;;;;0.40;0.40;;;21.80;1.00;;;;;;5032750;28;20224;-77
2022/10/08 11:00:25;;;;;;;0.47;0.47;;;21.70;1.00;;;;;;5038353;28;20213;-77
2022/10/08 11:03:14;;;;;;;0.50;0.50;;;23.20;1.00;;;;;;5048830;28;20171;-78
2022/10/08 11:05:41;;;;;;;0.50;0.50;;;23.50;1.00;;;;;;5036201;28;20498;-78
2022/10/08 11:08:34;;;;;;;0.60;0.60;;;23.30;1.00;;;;;;5037244;28;20172;-78
2022/10/08 11:11:21;;;;;;;0.40;0.40;;;21.60;1.00;;;;;;5035998;28;20199;-78
2022/10/08 11:14:12;;;;;;;0.40;0.40;;;21.60;1.00;;;;;;5036617;28;20584;-78
2022/10/08 11:17:05;;;;;;;0.50;0.50;;;22.00;1.00;;;;;;5033934;28;20184;-79
2022/10/08 11:19:41;;;;;;;0.50;0.50;;;23.00;1.00;;;;;;5035246;28;20180;-79
2022/10/08 11:22:27;;;;;;;0.50;0.50;;;23.70;1.00;;;;;;5037091;28;20206;-79
2022/10/08 11:25:11;;;;;;;0.50;0.50;;;24.50;1.00;;;;;;5038640;28;20605;-80
2022/10/08 11:28:10;;;;;;;0.40;0.40;;;25.10;1.00;;;;;;5034775;28;20198;-78
2022/10/08 11:31:09;;;;;;;0.50;0.50;;;25.90;1.00;;;;;;5034001;28;20250;-79
2022/10/08 11:33:35;;;;;;;0.60;0.60;;;26.10;1.00;;;;;;5038130;28;20659;-81
2022/10/08 11:36:36;;;;;;;0.47;0.47;;;25.10;1.00;;;;;;5039625;28;20226;-82
2022/10/08 11:39:20;;;;;;;0.60;0.60;;;24.30;1.00;;;;;;5039970;28;20199;-79
2022/10/08 11:42:07;;;;;;;0.60;0.60;;;24.80;1.00;;;;;;5057290;28;20199;-78
2022/10/08 11:44:34;;;;;;;0.60;0.60;;;25.40;1.00;;;;;;5062269;28;20274;-79
2022/10/08 11:47:34;;;;;;;0.57;0.57;;;25.50;1.00;;;;;;5160673;22;20297;-73
2022/10/08 11:50:01;;;;;;;0.60;0.60;;;26.20;1.00;;;;;;5049517;28;20207;-76
2022/10/08 11:52:31;;;;;;;0.50;0.50;;;26.40;1.00;;;;;;5054071;28;20195;-74
2022/10/08 11:54:59;;;;;;;0.53;0.53;;;26.30;1.00;;;;;;5053855;28;20256;-74
2022/10/08 11:57:34;;;;;;;0.60;0.60;;;24.30;1.00;;;;;;5053964;28;20194;-75
2022/10/08 12:00:24;;;;;;;0.60;0.60;;;22.70;1.00;;;;;;5053671;28;20566;-75
2022/10/08 12:02:52;;;;;;;0.50;0.50;;;21.40;1.00;;;;;;5048558;28;20179;-72
2022/10/08 12:05:42;;;;;;;0.50;0.50;;;23.30;1.00;;;;;;5053954;28;20179;-73
2022/10/08 12:08:08;;;;;;;0.60;0.60;;;24.80;1.00;;;;;;5054110;28;20190;-73
2022/10/08 12:10:40;;;;;;;0.40;0.40;;;25.30;1.00;;;;;;5053215;28;20199;-73
2022/10/08 12:13:11;;;;;;;0.40;0.40;;;25.10;1.00;;;;;;5053822;28;20199;-72
2022/10/08 12:15:39;;;;;;;0.40;0.40;;;24.70;1.00;;;;;;5053200;28;20211;-72
2022/10/08 12:18:16;;;;;;;0.40;0.40;;;23.90;1.00;;;;;;5053352;28;20609;-72
2022/10/08 12:20:42;;;;;;;0.50;0.50;;;23.30;1.00;;;;;;5052802;28;20201;-72
2022/10/08 12:23:34;;;;;;;0.40;0.40;;;24.00;1.00;;;;;;5051206;28;20175;-72
2022/10/08 12:26:01;;;;;;;0.50;0.50;;;23.40;1.00;;;;;;5040259;28;20282;-72
2022/10/08 12:28:34;;;;;;;0.50;0.50;;;23.00;1.00;;;;;;5052545;28;20228;-72
2022/10/08 12:31:13;;;;;;;0.30;0.30;;;23.30;1.00;;;;;;5052051;28;20199;-71
2022/10/08 12:33:39;;;;;;;0.40;0.40;;;23.80;1.00;;;;;;5050183;28;20258;-72
2022/10/08 12:36:38;;;;;;;0.47;0.47;;;24.10;1.00;;;;;;5052775;28;20214;-71
2022/10/08 12:39:17;;;;;;;0.40;0.40;;;22.90;1.00;;;;;;5051018;28;20214;-71
2022/10/08 12:42:07;;;;;;;0.40;0.40;;;23.20;1.00;;;;;;5052500;28;20271;-72
2022/10/08 12:44:47;;;;;;;0.40;0.40;;;24.20;1.00;;;;;;5051800;28;20241;-72
2022/10/08 12:47:37;;;;;;;0.40;0.40;;;24.80;1.00;;;;;;5052585;28;20194;-72
2022/10/08 12:50:31;;;;;;;0.30;0.30;;;24.80;1.00;;;;;;5052790;28;20285;-72
2022/10/08 12:53:02;;;;;;;0.30;0.30;;;21.90;1.00;;;;;;5041639;28;20199;-71
2022/10/08 12:55:29;;;;;;;0.30;0.30;;;21.10;1.00;;;;;;5052317;28;20729;-72
2022/10/08 12:57:54;;;;;;;0.50;0.50;;;23.60;1.00;;;;;;5052242;28;20179;-72
2022/10/08 13:00:27;;;;;;;0.47;0.47;;;25.00;1.00;;;;;;5049504;28;20195;-72
2022/10/08 13:02:59;;;;;;;0.50;0.50;;;25.50;1.00;;;;;;5052155;28;20171;-72
2022/10/08 13:05:37;;;;;;;0.40;0.40;;;24.20;1.00;;;;;;5051907;28;20197;-72
2022/10/08 13:08:34;;;;;;;0.60;0.60;;;25.00;1.00;;;;;;5050613;28;20183;-72
2022/10/08 13:11:08;;;;;;;0.50;0.50;;;24.10;1.00;;;;;;5051139;28;20234;-72
2022/10/08 13:13:40;;;;;;;0.40;0.40;;;23.70;1.00;;;;;;5051708;28;20181;-73
2022/10/08 13:16:13;;;;;;;0.40;0.40;;;24.00;1.00;;;;;;5052087;28;20210;-73